createdAt,value
2017-07-27T00:00:35.626Z,1007.15
2017-07-27T00:01:44.509Z,1007.12
2017-07-27T00:02:53.715Z,1007.1
2017-07-27T00:04:03.578Z,1007.1
2017-07-27T00:05:13.110Z,1007.09
2017-07-27T00:06:22.624Z,1007.08
2017-07-27T00:07:31.521Z,1007.08
2017-07-27T00:08:41.382Z,1007.08
2017-07-27T00:09:50.910Z,1007.06
2017-07-27T00:11:00.439Z,1007.07
2017-07-27T00:12:10.022Z,1007.05
2017-07-27T00:13:19.555Z,1007.06
2017-07-27T00:14:28.639Z,1007.08
2017-07-27T00:15:38.169Z,1007.06
2017-07-27T00:16:47.700Z,1007.02
2017-07-27T00:17:56.782Z,1007.03
2017-07-27T00:19:06.313Z,1007.06
2017-07-27T00:20:15.836Z,1007.04
2017-07-27T00:21:25.370Z,1006.98
2017-07-27T00:22:34.580Z,1007
2017-07-27T00:23:43.941Z,1007
2017-07-27T00:24:52.826Z,1006.99
2017-07-27T00:26:02.353Z,1007.01
2017-07-27T00:27:11.560Z,1007.01
2017-07-27T00:28:21.093Z,1006.97
2017-07-27T00:29:30.670Z,1006.95
2017-07-27T00:30:39.877Z,1006.91
2017-07-27T00:31:48.766Z,1006.9
2017-07-27T00:32:58.293Z,1006.89
2017-07-27T00:34:07.178Z,1006.87
2017-07-27T00:35:16.493Z,1006.86
2017-07-27T00:36:25.375Z,1006.83
2017-07-27T00:37:34.588Z,1006.83
2017-07-27T00:38:43.789Z,1006.84
2017-07-27T00:39:52.669Z,1006.83
2017-07-27T00:41:02.031Z,1006.82
2017-07-27T00:42:11.564Z,1006.81
2017-07-27T00:43:20.777Z,1006.75
2017-07-27T00:44:30.635Z,1006.78
2017-07-27T00:45:40.163Z,1006.8
2017-07-27T00:46:49.203Z,1006.74
2017-07-27T00:47:58.732Z,1006.77
2017-07-27T00:49:08.294Z,1006.71
2017-07-27T00:50:17.502Z,1006.75
2017-07-27T00:51:26.386Z,1006.73
2017-07-27T00:52:36.238Z,1006.75
2017-07-27T00:53:45.766Z,1006.7
2017-07-27T00:54:54.648Z,1006.73
2017-07-27T00:56:04.514Z,1006.73
2017-07-27T00:57:14.048Z,1006.77
2017-07-27T00:58:23.030Z,1006.76
2017-07-27T00:59:32.232Z,1006.72
2017-07-27T01:00:41.435Z,1006.72
2017-07-27T01:01:50.645Z,1006.71
2017-07-27T01:02:59.856Z,1006.72
2017-07-27T01:04:09.585Z,1006.68
2017-07-27T01:05:18.793Z,1006.69
2017-07-27T01:06:28.328Z,1006.66
2017-07-27T01:07:38.196Z,1006.7
2017-07-27T01:08:47.422Z,1006.7
2017-07-27T01:09:57.000Z,1006.64
2017-07-27T01:11:06.528Z,1006.66
2017-07-27T01:12:16.066Z,1006.62
2017-07-27T01:13:25.601Z,1006.64
2017-07-27T01:14:35.468Z,1006.63
2017-07-27T01:15:45.472Z,1006.58
2017-07-27T01:16:54.672Z,1006.62
2017-07-27T01:18:04.203Z,1006.57
2017-07-27T01:19:13.088Z,1006.53
2017-07-27T01:20:22.295Z,1006.51
2017-07-27T01:21:31.873Z,1006.45
2017-07-27T01:22:40.757Z,1006.44
2017-07-27T01:23:49.966Z,1006.41
2017-07-27T01:24:59.817Z,1006.38
2017-07-27T01:26:09.350Z,1006.37
2017-07-27T01:27:18.656Z,1006.41
2017-07-27T01:28:28.198Z,1006.41
2017-07-27T01:29:37.727Z,1006.42
2017-07-27T01:30:47.256Z,1006.37
2017-07-27T01:31:56.793Z,1006.39
2017-07-27T01:33:06.396Z,1006.37
2017-07-27T01:34:15.941Z,1006.37
2017-07-27T01:35:25.473Z,1006.33
2017-07-27T01:36:34.680Z,1006.34
2017-07-27T01:37:43.884Z,1006.28
2017-07-27T01:38:54.207Z,1006.33
2017-07-27T01:40:03.789Z,1006.35
2017-07-27T01:41:13.323Z,1006.3
2017-07-27T01:42:23.824Z,1006.31
2017-07-27T01:43:33.352Z,1006.32
2017-07-27T01:44:43.679Z,1006.31
2017-07-27T01:45:53.216Z,1006.31
2017-07-27T01:47:02.748Z,1006.33
2017-07-27T01:48:11.629Z,1006.4
2017-07-27T01:49:20.834Z,1006.34
2017-07-27T01:50:30.988Z,1006.42
2017-07-27T01:51:40.191Z,1006.37
2017-07-27T01:52:49.394Z,1006.4
2017-07-27T01:53:58.941Z,1006.3
2017-07-27T01:55:08.148Z,1006.31
2017-07-27T01:56:17.879Z,1006.32
2017-07-27T01:57:28.060Z,1006.29
2017-07-27T01:58:36.942Z,1006.34
2017-07-27T01:59:46.472Z,1006.28
2017-07-27T02:00:56.003Z,1006.25
2017-07-27T02:02:05.832Z,1006.3
2017-07-27T02:03:15.042Z,1006.25
2017-07-27T02:04:23.930Z,1006.24
2017-07-27T02:05:33.786Z,1006.2
2017-07-27T02:06:42.989Z,1006.22
2017-07-27T02:07:51.930Z,1006.18
2017-07-27T02:09:01.460Z,1006.15
2017-07-27T02:10:11.323Z,1006.1
2017-07-27T02:11:20.535Z,1006.17
2017-07-27T02:12:30.070Z,1006.15
2017-07-27T02:13:39.576Z,1006.15
2017-07-27T02:14:49.101Z,1006.17
2017-07-27T02:15:57.986Z,1006.15
2017-07-27T02:17:07.519Z,1006.1
2017-07-27T02:18:16.731Z,1006.13
2017-07-27T02:19:26.688Z,1006.12
2017-07-27T02:20:36.213Z,1006.08
2017-07-27T02:21:46.072Z,1006.09
2017-07-27T02:22:55.930Z,1006.09
2017-07-27T02:24:05.789Z,1006.04
2017-07-27T02:25:15.515Z,1006.04
2017-07-27T02:26:24.718Z,1006.02
2017-07-27T02:27:34.249Z,1006.03
2017-07-27T02:28:43.131Z,1006.05
2017-07-27T02:29:52.032Z,1006
2017-07-27T02:31:01.570Z,1005.98
2017-07-27T02:32:11.422Z,1006
2017-07-27T02:33:20.950Z,1006
2017-07-27T02:34:30.481Z,1006.02
2017-07-27T02:35:39.692Z,1006
2017-07-27T02:36:48.893Z,1006
2017-07-27T02:37:58.480Z,1005.97
2017-07-27T02:39:08.666Z,1005.99
2017-07-27T02:40:18.518Z,1005.93
2017-07-27T02:41:28.048Z,1005.93
2017-07-27T02:42:37.576Z,1006
2017-07-27T02:43:46.780Z,1006
2017-07-27T02:44:56.310Z,1006.07
2017-07-27T02:46:05.517Z,1006.04
2017-07-27T02:47:14.729Z,1006.01
2017-07-27T02:48:24.563Z,1006.02
2017-07-27T02:49:33.768Z,1005.97
2017-07-27T02:50:42.975Z,1005.97
2017-07-27T02:51:52.506Z,1005.93
2017-07-27T02:53:02.367Z,1005.93
2017-07-27T02:54:11.622Z,1005.91
2017-07-27T02:55:21.150Z,1005.91
2017-07-27T02:56:30.683Z,1005.91
2017-07-27T02:57:39.566Z,1005.94
2017-07-27T02:58:48.776Z,1005.93
2017-07-27T02:59:58.133Z,1005.91
2017-07-27T03:01:07.989Z,1005.82
2017-07-27T03:02:17.196Z,1005.8
2017-07-27T03:03:26.414Z,1005.87
2017-07-27T03:04:35.301Z,1005.81
2017-07-27T03:05:44.560Z,1005.82
2017-07-27T03:06:53.778Z,1005.77
2017-07-27T03:08:03.629Z,1005.73
2017-07-27T03:09:12.511Z,1005.69
2017-07-27T03:10:21.402Z,1005.66
2017-07-27T03:11:31.366Z,1005.67
2017-07-27T03:12:40.589Z,1005.72
2017-07-27T03:13:49.469Z,1005.69
2017-07-27T03:14:59.004Z,1005.68
2017-07-27T03:16:08.859Z,1005.66
2017-07-27T03:17:18.743Z,1005.59
2017-07-27T03:18:27.948Z,1005.66
2017-07-27T03:19:36.833Z,1005.65
2017-07-27T03:20:46.409Z,1005.61
2017-07-27T03:21:55.617Z,1005.61
2017-07-27T03:23:05.522Z,1005.62
2017-07-27T03:24:14.406Z,1005.59
2017-07-27T03:25:23.938Z,1005.62
2017-07-27T03:26:33.468Z,1005.58
2017-07-27T03:27:43.321Z,1005.63
2017-07-27T03:28:52.528Z,1005.65
2017-07-27T03:30:02.059Z,1005.58
2017-07-27T03:31:11.931Z,1005.59
2017-07-27T03:32:21.467Z,1005.59
2017-07-27T03:33:30.999Z,1005.63
2017-07-27T03:34:40.259Z,1005.58
2017-07-27T03:35:49.142Z,1005.57
2017-07-27T03:36:59.320Z,1005.54
2017-07-27T03:38:08.846Z,1005.57
2017-07-27T03:39:17.727Z,1005.54
2017-07-27T03:40:27.133Z,1005.55
2017-07-27T03:41:36.667Z,1005.54
2017-07-27T03:42:45.874Z,1005.55
2017-07-27T03:43:55.081Z,1005.53
2017-07-27T03:45:04.289Z,1005.51
2017-07-27T03:46:13.797Z,1005.48
2017-07-27T03:47:22.677Z,1005.44
2017-07-27T03:48:31.879Z,1005.46
2017-07-27T03:49:41.094Z,1005.51
2017-07-27T03:50:50.622Z,1005.49
2017-07-27T03:51:59.980Z,1005.48
2017-07-27T03:53:09.508Z,1005.49
2017-07-27T03:54:19.035Z,1005.52
2017-07-27T03:55:28.565Z,1005.48
2017-07-27T03:56:37.458Z,1005.47
2017-07-27T03:57:47.364Z,1005.47
2017-07-27T03:58:56.246Z,1005.5
2017-07-27T04:00:05.455Z,1005.5
2017-07-27T04:01:14.662Z,1005.56
2017-07-27T04:02:23.540Z,1005.55
2017-07-27T04:03:33.068Z,1005.56
2017-07-27T04:04:42.603Z,1005.53
2017-07-27T04:05:52.133Z,1005.55
2017-07-27T04:07:01.989Z,1005.56
2017-07-27T04:08:11.840Z,1005.52
2017-07-27T04:09:21.346Z,1005.47
2017-07-27T04:10:30.227Z,1005.53
2017-07-27T04:11:39.433Z,1005.48
2017-07-27T04:12:48.639Z,1005.44
2017-07-27T04:13:58.493Z,1005.49
2017-07-27T04:15:08.024Z,1005.47
2017-07-27T04:16:17.902Z,1005.42
2017-07-27T04:17:27.102Z,1005.45
2017-07-27T04:18:35.984Z,1005.51
2017-07-27T04:19:45.845Z,1005.46
2017-07-27T04:20:55.485Z,1005.51
2017-07-27T04:22:05.030Z,1005.51
2017-07-27T04:23:14.252Z,1005.46
2017-07-27T04:24:23.462Z,1005.45
2017-07-27T04:25:32.996Z,1005.48
2017-07-27T04:26:42.678Z,1005.49
2017-07-27T04:27:51.559Z,1005.5
2017-07-27T04:29:00.765Z,1005.5
2017-07-27T04:30:10.289Z,1005.5
2017-07-27T04:31:19.818Z,1005.46
2017-07-27T04:32:29.790Z,1005.5
2017-07-27T04:33:38.685Z,1005.48
2017-07-27T04:34:47.573Z,1005.5
2017-07-27T04:35:56.456Z,1005.5
2017-07-27T04:37:05.982Z,1005.52
2017-07-27T04:38:15.617Z,1005.51
2017-07-27T04:39:25.151Z,1005.5
2017-07-27T04:40:35.010Z,1005.5
2017-07-27T04:41:44.545Z,1005.52
2017-07-27T04:42:54.404Z,1005.53
2017-07-27T04:44:03.760Z,1005.48
2017-07-27T04:45:13.290Z,1005.52
2017-07-27T04:46:22.497Z,1005.52
2017-07-27T04:47:31.380Z,1005.53
2017-07-27T04:48:40.596Z,1005.47
2017-07-27T04:49:49.801Z,1005.5
2017-07-27T04:50:59.005Z,1005.5
2017-07-27T04:52:08.538Z,1005.47
2017-07-27T04:53:18.069Z,1005.49
2017-07-27T04:54:27.919Z,1005.46
2017-07-27T04:55:37.131Z,1005.45
2017-07-27T04:56:46.982Z,1005.51
2017-07-27T04:57:55.865Z,1005.51
2017-07-27T04:59:05.395Z,1005.52
2017-07-27T05:00:14.634Z,1005.49
2017-07-27T05:01:23.996Z,1005.49
2017-07-27T05:02:33.202Z,1005.5
2017-07-27T05:03:42.741Z,1005.52
2017-07-27T05:04:51.625Z,1005.52
2017-07-27T05:06:00.832Z,1005.5
2017-07-27T05:07:10.572Z,1005.57
2017-07-27T05:08:20.113Z,1005.55
2017-07-27T05:09:29.643Z,1005.56
2017-07-27T05:10:38.848Z,1005.56
2017-07-27T05:11:48.054Z,1005.56
2017-07-27T05:12:57.587Z,1005.57
2017-07-27T05:14:07.444Z,1005.54
2017-07-27T05:15:16.650Z,1005.55
2017-07-27T05:16:26.180Z,1005.59
2017-07-27T05:17:35.713Z,1005.57
2017-07-27T05:18:45.618Z,1005.52
2017-07-27T05:19:55.149Z,1005.57
2017-07-27T05:21:05.012Z,1005.53
2017-07-27T05:22:14.221Z,1005.58
2017-07-27T05:23:23.103Z,1005.57
2017-07-27T05:24:32.309Z,1005.55
2017-07-27T05:25:41.840Z,1005.56
2017-07-27T05:26:51.046Z,1005.54
2017-07-27T05:28:00.250Z,1005.51
2017-07-27T05:29:09.788Z,1005.54
2017-07-27T05:30:19.096Z,1005.56
2017-07-27T05:31:28.632Z,1005.49
2017-07-27T05:32:38.489Z,1005.46
2017-07-27T05:33:47.696Z,1005.5
2017-07-27T05:34:57.228Z,1005.47
2017-07-27T05:36:06.997Z,1005.45
2017-07-27T05:37:16.207Z,1005.44
2017-07-27T05:38:25.425Z,1005.44
2017-07-27T05:39:34.958Z,1005.45
2017-07-27T05:40:43.842Z,1005.49
2017-07-27T05:41:53.430Z,1005.56
2017-07-27T05:43:02.650Z,1005.57
2017-07-27T05:44:12.194Z,1005.6
2017-07-27T05:45:21.404Z,1005.61
2017-07-27T05:46:30.617Z,1005.68
2017-07-27T05:47:39.844Z,1005.67
2017-07-27T05:48:50.026Z,1005.68
2017-07-27T05:49:59.568Z,1005.69
2017-07-27T05:51:09.748Z,1005.7
2017-07-27T05:52:18.632Z,1005.71
2017-07-27T05:53:28.091Z,1005.67
2017-07-27T05:54:37.303Z,1005.73
2017-07-27T05:55:46.517Z,1005.74
2017-07-27T05:56:55.412Z,1005.78
2017-07-27T05:58:04.619Z,1005.77
2017-07-27T05:59:14.255Z,1005.74
2017-07-27T06:00:23.790Z,1005.74
2017-07-27T06:01:32.675Z,1005.74
2017-07-27T06:02:42.217Z,1005.75
2017-07-27T06:03:51.755Z,1005.7
2017-07-27T06:05:01.064Z,1005.78
2017-07-27T06:06:10.604Z,1005.77
2017-07-27T06:07:20.147Z,1005.8
2017-07-27T06:08:30.326Z,1005.81
2017-07-27T06:09:39.536Z,1005.79
2017-07-27T06:10:48.795Z,1005.76
2017-07-27T06:11:57.678Z,1005.7
2017-07-27T06:13:07.531Z,1005.74
2017-07-27T06:14:17.064Z,1005.75
2017-07-27T06:15:26.924Z,1005.76
2017-07-27T06:16:36.787Z,1005.68
2017-07-27T06:17:46.316Z,1005.71
2017-07-27T06:18:55.200Z,1005.69
2017-07-27T06:20:04.779Z,1005.71
2017-07-27T06:21:14.337Z,1005.77
2017-07-27T06:22:23.600Z,1005.78
2017-07-27T06:23:32.807Z,1005.78
2017-07-27T06:24:42.341Z,1005.76
2017-07-27T06:25:52.577Z,1005.69
2017-07-27T06:27:02.115Z,1005.71
2017-07-27T06:28:12.294Z,1005.7
2017-07-27T06:29:21.512Z,1005.69
2017-07-27T06:30:30.435Z,1005.72
2017-07-27T06:31:40.297Z,1005.73
2017-07-27T06:32:49.829Z,1005.72
2017-07-27T06:33:59.042Z,1005.72
2017-07-27T06:35:08.878Z,1005.73
2017-07-27T06:36:18.107Z,1005.76
2017-07-27T06:37:27.636Z,1005.76
2017-07-27T06:38:37.819Z,1005.8
2017-07-27T06:39:47.362Z,1005.78
2017-07-27T06:40:56.922Z,1005.8
2017-07-27T06:42:06.464Z,1005.74
2017-07-27T06:43:16.538Z,1005.79
2017-07-27T06:44:25.759Z,1005.82
2017-07-27T06:45:34.972Z,1005.77
2017-07-27T06:46:44.830Z,1005.83
2017-07-27T06:47:54.361Z,1005.74
2017-07-27T06:49:03.267Z,1005.8
2017-07-27T06:50:12.483Z,1005.78
2017-07-27T06:51:22.022Z,1005.8
2017-07-27T06:52:31.573Z,1005.75
2017-07-27T06:53:40.790Z,1005.77
2017-07-27T06:54:50.320Z,1005.75
2017-07-27T06:55:59.859Z,1005.75
2017-07-27T06:57:09.392Z,1005.69
2017-07-27T06:58:18.928Z,1005.7
2017-07-27T06:59:28.618Z,1005.72
2017-07-27T07:00:38.481Z,1005.7
2017-07-27T07:01:47.369Z,1005.65
2017-07-27T07:02:56.900Z,1005.64
2017-07-27T07:04:06.432Z,1005.59
2017-07-27T07:05:15.645Z,1005.59
2017-07-27T07:06:24.858Z,1005.59
2017-07-27T07:07:34.392Z,1005.59
2017-07-27T07:08:43.606Z,1005.64
2017-07-27T07:09:53.141Z,1005.63
2017-07-27T07:11:02.234Z,1005.66
2017-07-27T07:12:11.767Z,1005.65
2017-07-27T07:13:20.985Z,1005.69
2017-07-27T07:14:30.194Z,1005.63
2017-07-27T07:15:40.073Z,1005.65
2017-07-27T07:16:49.298Z,1005.7
2017-07-27T07:17:59.152Z,1005.7
2017-07-27T07:19:08.371Z,1005.69
2017-07-27T07:20:18.233Z,1005.68
2017-07-27T07:21:28.102Z,1005.69
2017-07-27T07:22:38.110Z,1005.67
2017-07-27T07:23:47.321Z,1005.7
2017-07-27T07:24:56.528Z,1005.74
2017-07-27T07:26:06.061Z,1005.76
2017-07-27T07:27:15.598Z,1005.77
2017-07-27T07:28:25.332Z,1005.8
2017-07-27T07:29:34.870Z,1005.84
2017-07-27T07:30:44.425Z,1005.88
2017-07-27T07:31:53.961Z,1005.95
2017-07-27T07:33:03.170Z,1005.97
2017-07-27T07:34:13.001Z,1006.02
2017-07-27T07:35:22.549Z,1006.04
2017-07-27T07:36:31.761Z,1006.11
2017-07-27T07:37:41.947Z,1006.13
2017-07-27T07:38:51.485Z,1006.1
2017-07-27T07:40:00.475Z,1006.06
2017-07-27T07:41:10.009Z,1005.99
2017-07-27T07:42:19.560Z,1006.03
2017-07-27T07:43:29.095Z,1006.04
2017-07-27T07:44:38.631Z,1005.97
2017-07-27T07:45:47.670Z,1005.83
2017-07-27T07:46:57.536Z,1005.83
2017-07-27T07:48:07.098Z,1005.88
2017-07-27T07:49:17.277Z,1005.89
2017-07-27T07:50:26.816Z,1005.9
2017-07-27T07:51:36.514Z,1005.83
2017-07-27T07:52:45.723Z,1005.9
2017-07-27T07:53:55.593Z,1005.92
2017-07-27T07:55:06.096Z,1005.91
2017-07-27T07:56:15.309Z,1005.92
2017-07-27T07:57:25.584Z,1006.03
2017-07-27T07:58:35.176Z,1006.03
2017-07-27T07:59:44.717Z,1006.16
2017-07-27T08:00:54.338Z,1006.15
2017-07-27T08:02:03.562Z,1006.13
2017-07-27T08:03:13.593Z,1006.21
2017-07-27T08:04:23.130Z,1006.22
2017-07-27T08:05:32.659Z,1006.22
2017-07-27T08:06:42.205Z,1006.16
2017-07-27T08:07:51.091Z,1006.18
2017-07-27T08:09:00.949Z,1006.15
2017-07-27T08:10:10.162Z,1006.17
2017-07-27T08:11:20.025Z,1006.18
2017-07-27T08:12:29.236Z,1006.13
2017-07-27T08:13:39.137Z,1006.15
2017-07-27T08:14:48.413Z,1006.22
2017-07-27T08:15:58.272Z,1006.21
2017-07-27T08:17:07.484Z,1006.26
2017-07-27T08:18:16.702Z,1006.23
2017-07-27T08:19:26.562Z,1006.22
2017-07-27T08:20:36.071Z,1006.34
2017-07-27T08:21:45.625Z,1006.24
2017-07-27T08:22:55.169Z,1006.28
2017-07-27T08:24:04.709Z,1006.26
2017-07-27T08:25:14.909Z,1006.31
2017-07-27T08:26:24.771Z,1006.3
2017-07-27T08:27:34.959Z,1006.27
2017-07-27T08:28:43.853Z,1006.24
2017-07-27T08:29:54.040Z,1006.31
2017-07-27T08:31:04.236Z,1006.32
2017-07-27T08:32:13.930Z,1006.28
2017-07-27T08:33:23.143Z,1006.26
2017-07-27T08:34:32.354Z,1006.27
2017-07-27T08:35:41.915Z,1006.29
2017-07-27T08:36:51.125Z,1006.23
2017-07-27T08:38:00.782Z,1006.22
2017-07-27T08:39:10.974Z,1006.24
2017-07-27T08:40:20.511Z,1006.22
2017-07-27T08:41:30.060Z,1006.25
2017-07-27T08:42:39.593Z,1006.14
2017-07-27T08:43:49.276Z,1006.17
2017-07-27T08:44:59.458Z,1006.17
2017-07-27T08:46:09.319Z,1006.21
2017-07-27T08:47:18.852Z,1006.16
2017-07-27T08:48:28.706Z,1006.24
2017-07-27T08:49:37.966Z,1006.23
2017-07-27T08:50:47.180Z,1006.22
2017-07-27T08:51:56.719Z,1006.24
2017-07-27T08:53:05.929Z,1006.23
2017-07-27T08:54:15.464Z,1006.24
2017-07-27T08:55:24.999Z,1006.26
2017-07-27T08:56:33.885Z,1006.3
2017-07-27T08:57:43.094Z,1006.3
2017-07-27T08:58:52.311Z,1006.28
2017-07-27T09:00:01.199Z,1006.32
2017-07-27T09:01:11.062Z,1006.32
2017-07-27T09:02:19.954Z,1006.34
2017-07-27T09:03:29.166Z,1006.26
2017-07-27T09:04:38.382Z,1006.24
2017-07-27T09:05:47.594Z,1006.27
2017-07-27T09:06:57.286Z,1006.37
2017-07-27T09:08:06.183Z,1006.27
2017-07-27T09:09:15.402Z,1006.29
2017-07-27T09:10:24.617Z,1006.34
2017-07-27T09:11:34.154Z,1006.34
2017-07-27T09:12:43.411Z,1006.32
2017-07-27T09:13:52.620Z,1006.32
2017-07-27T09:15:01.838Z,1006.28
2017-07-27T09:16:11.376Z,1006.31
2017-07-27T09:17:20.589Z,1006.3
2017-07-27T09:18:29.949Z,1006.32
2017-07-27T09:19:39.158Z,1006.33
2017-07-27T09:20:49.018Z,1006.33
2017-07-27T09:21:58.235Z,1006.29
2017-07-27T09:23:07.464Z,1006.29
2017-07-27T09:24:16.355Z,1006.3
2017-07-27T09:25:25.903Z,1006.33
2017-07-27T09:26:34.791Z,1006.29
2017-07-27T09:27:43.678Z,1006.29
2017-07-27T09:28:52.887Z,1006.27
2017-07-27T09:30:02.724Z,1006.32
2017-07-27T09:31:12.265Z,1006.22
2017-07-27T09:32:21.482Z,1006.23
2017-07-27T09:33:31.013Z,1006.19
2017-07-27T09:34:40.242Z,1006.29
2017-07-27T09:35:49.608Z,1006.22
2017-07-27T09:36:59.463Z,1006.16
2017-07-27T09:38:08.996Z,1006.2
2017-07-27T09:39:18.541Z,1006.09
2017-07-27T09:40:27.748Z,1006.09
2017-07-27T09:41:37.483Z,1006.14
2017-07-27T09:42:47.342Z,1006.12
2017-07-27T09:43:56.560Z,1006.11
2017-07-27T09:45:06.425Z,1006.11
2017-07-27T09:46:15.959Z,1006.1
2017-07-27T09:47:25.648Z,1006.09
2017-07-27T09:48:34.869Z,1006.09
2017-07-27T09:49:44.090Z,1006.12
2017-07-27T09:50:54.274Z,1006.09
2017-07-27T09:52:03.812Z,1006.07
2017-07-27T09:53:13.818Z,1006.06
2017-07-27T09:54:22.714Z,1006.06
2017-07-27T09:55:31.921Z,1006.08
2017-07-27T09:56:41.134Z,1006.12
2017-07-27T09:57:50.676Z,1006.17
2017-07-27T09:59:00.638Z,1006.17
2017-07-27T10:00:09.876Z,1006.22
2017-07-27T10:01:20.059Z,1006.29
2017-07-27T10:02:29.600Z,1006.36
2017-07-27T10:03:38.814Z,1006.41
2017-07-27T10:04:47.951Z,1006.41
2017-07-27T10:05:57.184Z,1006.35
2017-07-27T10:07:07.044Z,1006.4
2017-07-27T10:08:16.255Z,1006.41
2017-07-27T10:09:25.795Z,1006.41
2017-07-27T10:10:35.163Z,1006.46
2017-07-27T10:11:45.349Z,1006.44
2017-07-27T10:12:54.561Z,1006.41
2017-07-27T10:14:04.097Z,1006.35
2017-07-27T10:15:13.636Z,1006.35
2017-07-27T10:16:22.850Z,1006.37
2017-07-27T10:17:32.066Z,1006.45
2017-07-27T10:18:41.282Z,1006.34
2017-07-27T10:19:50.824Z,1006.34
2017-07-27T10:20:59.713Z,1006.38
2017-07-27T10:22:09.395Z,1006.36
2017-07-27T10:23:18.937Z,1006.35
2017-07-27T10:24:28.154Z,1006.35
2017-07-27T10:25:38.032Z,1006.33
2017-07-27T10:26:47.567Z,1006.33
2017-07-27T10:27:56.654Z,1006.36
2017-07-27T10:29:06.520Z,1006.38
2017-07-27T10:30:16.382Z,1006.41
2017-07-27T10:31:25.280Z,1006.32
2017-07-27T10:32:34.489Z,1006.3
2017-07-27T10:33:44.472Z,1006.25
2017-07-27T10:34:53.363Z,1006.21
2017-07-27T10:36:02.574Z,1006.16
2017-07-27T10:37:11.788Z,1006.21
2017-07-27T10:38:20.683Z,1006.15
2017-07-27T10:39:30.114Z,1006.12
2017-07-27T10:40:39.660Z,1006.13
2017-07-27T10:41:49.552Z,1006.24
2017-07-27T10:42:58.768Z,1006.29
2017-07-27T10:44:08.311Z,1006.29
2017-07-27T10:45:17.970Z,1006.26
2017-07-27T10:46:27.187Z,1006.34
2017-07-27T10:47:36.726Z,1006.4
2017-07-27T10:48:45.617Z,1006.45
2017-07-27T10:49:54.833Z,1006.44
2017-07-27T10:51:04.203Z,1006.45
2017-07-27T10:52:13.737Z,1006.48
2017-07-27T10:53:23.604Z,1006.46
2017-07-27T10:54:33.467Z,1006.43
2017-07-27T10:55:42.686Z,1006.42
2017-07-27T10:56:52.218Z,1006.42
2017-07-27T10:58:01.756Z,1006.36
2017-07-27T10:59:11.295Z,1006.46
2017-07-27T11:00:20.827Z,1006.43
2017-07-27T11:01:30.360Z,1006.46
2017-07-27T11:02:40.004Z,1006.46
2017-07-27T11:03:49.219Z,1006.48
2017-07-27T11:04:59.403Z,1006.45
2017-07-27T11:06:08.952Z,1006.44
2017-07-27T11:07:18.162Z,1006.44
2017-07-27T11:08:27.625Z,1006.51
2017-07-27T11:09:36.510Z,1006.52
2017-07-27T11:10:45.731Z,1006.53
2017-07-27T11:11:54.940Z,1006.52
2017-07-27T11:13:04.484Z,1006.49
2017-07-27T11:14:14.590Z,1006.49
2017-07-27T11:15:24.121Z,1006.55
2017-07-27T11:16:33.978Z,1006.62
2017-07-27T11:17:43.190Z,1006.56
2017-07-27T11:18:52.085Z,1006.5
2017-07-27T11:20:01.364Z,1006.53
2017-07-27T11:21:10.577Z,1006.51
2017-07-27T11:22:20.441Z,1006.6
2017-07-27T11:23:29.975Z,1006.52
2017-07-27T11:24:39.521Z,1006.52
2017-07-27T11:25:49.114Z,1006.61
2017-07-27T11:26:58.334Z,1006.59
2017-07-27T11:28:07.875Z,1006.54
2017-07-27T11:29:17.413Z,1006.53
2017-07-27T11:30:26.304Z,1006.46
2017-07-27T11:31:35.190Z,1006.53
2017-07-27T11:32:44.077Z,1006.61
2017-07-27T11:33:52.993Z,1006.53
2017-07-27T11:35:02.878Z,1006.6
2017-07-27T11:36:12.413Z,1006.53
2017-07-27T11:37:21.777Z,1006.75
2017-07-27T11:38:31.319Z,1006.53
2017-07-27T11:39:40.861Z,1006.55
2017-07-27T11:40:51.049Z,1006.53
2017-07-27T11:42:00.261Z,1006.56
2017-07-27T11:43:10.097Z,1006.5
2017-07-27T11:44:19.310Z,1006.51
2017-07-27T11:45:29.171Z,1006.49
2017-07-27T11:46:38.067Z,1006.51
2017-07-27T11:47:47.932Z,1006.5
2017-07-27T11:48:57.519Z,1006.49
2017-07-27T11:50:07.073Z,1006.45
2017-07-27T11:51:16.287Z,1006.46
2017-07-27T11:52:25.498Z,1006.45
2017-07-27T11:53:35.033Z,1006.5
2017-07-27T11:54:44.723Z,1006.39
2017-07-27T11:55:53.610Z,1006.4
2017-07-27T11:57:03.143Z,1006.38
2017-07-27T11:58:12.680Z,1006.4
2017-07-27T11:59:22.230Z,1006.51
2017-07-27T12:00:31.640Z,1006.55
2017-07-27T12:01:40.849Z,1006.53
2017-07-27T12:02:50.715Z,1006.58
2017-07-27T12:04:00.575Z,1006.6
2017-07-27T12:05:10.109Z,1006.48
2017-07-27T12:06:19.793Z,1006.54
2017-07-27T12:07:28.681Z,1006.58
2017-07-27T12:08:38.223Z,1006.55
2017-07-27T12:09:48.089Z,1006.57
2017-07-27T12:10:57.310Z,1006.51
2017-07-27T12:12:07.007Z,1006.61
2017-07-27T12:13:16.874Z,1006.59
2017-07-27T12:14:26.454Z,1006.53
2017-07-27T12:15:35.672Z,1006.52
2017-07-27T12:16:45.218Z,1006.51
2017-07-27T12:17:54.548Z,1006.53
2017-07-27T12:19:04.101Z,1006.51
2017-07-27T12:20:13.975Z,1006.55
2017-07-27T12:21:23.516Z,1006.53
2017-07-27T12:22:32.410Z,1006.51
2017-07-27T12:23:42.102Z,1006.54
2017-07-27T12:24:51.988Z,1006.43
2017-07-27T12:26:01.206Z,1006.43
2017-07-27T12:27:11.395Z,1006.46
2017-07-27T12:28:21.274Z,1006.51
2017-07-27T12:29:30.217Z,1006.64
2017-07-27T12:30:39.439Z,1006.45
2017-07-27T12:31:49.304Z,1006.38
2017-07-27T12:32:58.846Z,1006.34
2017-07-27T12:34:08.401Z,1006.38
2017-07-27T12:35:18.270Z,1006.37
2017-07-27T12:36:28.492Z,1006.53
2017-07-27T12:37:38.032Z,1006.46
2017-07-27T12:38:47.246Z,1006.46
2017-07-27T12:39:57.127Z,1006.52
2017-07-27T12:41:07.154Z,1006.49
2017-07-27T12:42:16.379Z,1006.51
2017-07-27T12:43:25.921Z,1006.49
2017-07-27T12:44:35.148Z,1006.46
2017-07-27T12:45:44.042Z,1006.51
2017-07-27T12:46:53.412Z,1006.5
2017-07-27T12:48:02.627Z,1006.52
2017-07-27T12:49:12.170Z,1006.53
2017-07-27T12:50:21.385Z,1006.51
2017-07-27T12:51:31.253Z,1006.53
2017-07-27T12:52:40.524Z,1006.49
2017-07-27T12:53:50.104Z,1006.51
2017-07-27T12:54:59.644Z,1006.56
2017-07-27T12:56:08.863Z,1006.45
2017-07-27T12:57:18.086Z,1006.52
2017-07-27T12:58:27.302Z,1006.49
2017-07-27T12:59:36.204Z,1006.53
2017-07-27T13:00:45.425Z,1006.58
2017-07-27T13:01:55.307Z,1006.58
2017-07-27T13:03:04.540Z,1006.54
2017-07-27T13:04:14.572Z,1006.56
2017-07-27T13:05:23.796Z,1006.62
2017-07-27T13:06:33.340Z,1006.58
2017-07-27T13:07:42.552Z,1006.59
2017-07-27T13:08:52.097Z,1006.6
2017-07-27T13:10:01.567Z,1006.63
2017-07-27T13:11:11.109Z,1006.59
2017-07-27T13:12:20.652Z,1006.53
2017-07-27T13:13:29.871Z,1006.54
2017-07-27T13:14:39.089Z,1006.52
2017-07-27T13:15:48.454Z,1006.47
2017-07-27T13:16:57.353Z,1006.58
2017-07-27T13:18:06.587Z,1006.58
2017-07-27T13:19:16.133Z,1006.51
2017-07-27T13:20:25.680Z,1006.51
2017-07-27T13:21:35.567Z,1006.53
2017-07-27T13:22:45.432Z,1006.6
2017-07-27T13:23:54.648Z,1006.7
2017-07-27T13:25:03.866Z,1006.57
2017-07-27T13:26:13.407Z,1006.64
2017-07-27T13:27:23.165Z,1006.62
2017-07-27T13:28:32.712Z,1006.56
2017-07-27T13:29:42.256Z,1006.6
2017-07-27T13:30:51.154Z,1006.6
2017-07-27T13:32:00.731Z,1006.61
2017-07-27T13:33:10.696Z,1006.62
2017-07-27T13:34:20.573Z,1006.69
2017-07-27T13:35:30.774Z,1006.59
2017-07-27T13:36:40.328Z,1006.65
2017-07-27T13:37:49.905Z,1006.64
2017-07-27T13:38:59.297Z,1006.7
2017-07-27T13:40:08.528Z,1006.74
2017-07-27T13:41:18.091Z,1006.7
2017-07-27T13:42:27.309Z,1006.64
2017-07-27T13:43:36.529Z,1006.62
2017-07-27T13:44:46.873Z,1006.57
2017-07-27T13:45:56.422Z,1006.51
2017-07-27T13:47:05.969Z,1006.51
2017-07-27T13:48:15.188Z,1006.45
2017-07-27T13:49:25.055Z,1006.46
2017-07-27T13:50:34.436Z,1006.4
2017-07-27T13:51:43.975Z,1006.39
2017-07-27T13:52:53.193Z,1006.37
2017-07-27T13:54:02.416Z,1006.33
2017-07-27T13:55:11.628Z,1006.37
2017-07-27T13:56:21.282Z,1006.39
2017-07-27T13:57:31.149Z,1006.41
2017-07-27T13:58:41.009Z,1006.46
2017-07-27T13:59:50.226Z,1006.46
2017-07-27T14:00:59.445Z,1006.52
2017-07-27T14:02:09.362Z,1006.57
2017-07-27T14:03:19.233Z,1006.53
2017-07-27T14:04:28.769Z,1006.6